< < Back
Terminal Aerodrome Forecast


Current Version              Previous Versions:   1  2  3  4  5  6  7  8  9  

Terminal Aerodrome Forecast

780
FTUS44 KHUN 291120
TAFHSV
TAF
KHSV 291120Z 2912/3012 16004KT P6SM SCT250
     FM291600 19008KT P6SM SCT050
     FM300000 VRB03KT P6SM BKN050 BKN150=



Latest METAR

864
SAUS80 KWBC 300400
MTRHSV
METAR KHSV 300353Z 12003KT 10SM SCT250 25/19 A3006 RMK AO2 SLP169
T02500189


USA.gov is the U.S. government's official web portal to all federal, state and local government web resources and services.